createdAt,value
2022-08-05T00:00:18.761Z,25.38
2022-08-05T00:02:51.098Z,25.32
2022-08-05T00:06:03.226Z,25.37
2022-08-05T00:08:32.424Z,25.39
2022-08-05T00:11:01.355Z,25.25
2022-08-05T00:13:39.300Z,25.31
2022-08-05T00:16:12.984Z,25.32
2022-08-05T00:18:44.313Z,25.29
2022-08-05T00:21:14.362Z,25.33
2022-08-05T00:23:46.866Z,25.22
2022-08-05T00:26:22.021Z,25.28
2022-08-05T00:28:50.911Z,25.22
2022-08-05T00:31:53.135Z,25.24
2022-08-05T00:34:53.412Z,25.33
2022-08-05T00:37:10.848Z,25.31
2022-08-05T00:39:57.524Z,25.28
2022-08-05T00:42:35.232Z,25.24
2022-08-05T00:45:04.418Z,25.15
2022-08-05T00:47:56.966Z,25.14
2022-08-05T00:50:21.064Z,25.27
2022-08-05T00:52:48.545Z,25.24
2022-08-05T00:55:15.885Z,25.24
2022-08-05T00:57:58.389Z,25.30
2022-08-05T01:00:28.433Z,25.31
2022-08-05T01:02:57.838Z,25.23
2022-08-05T01:05:27.800Z,25.23
2022-08-05T01:08:42.277Z,25.21
2022-08-05T01:10:52.122Z,25.23
2022-08-05T01:13:57.931Z,25.28
2022-08-05T01:16:39.361Z,25.16
2022-08-05T01:19:16.230Z,25.19
2022-08-05T01:22:18.769Z,25.20
2022-08-05T01:25:16.690Z,25.13
2022-08-05T01:28:04.066Z,25.21
2022-08-05T01:30:35.250Z,25.18
2022-08-05T01:33:08.625Z,25.12
2022-08-05T01:35:52.061Z,25.16
2022-08-05T01:38:24.894Z,25.11
2022-08-05T01:40:58.156Z,25.13
2022-08-05T01:43:29.542Z,25.00
2022-08-05T01:45:57.835Z,25.02
2022-08-05T01:48:26.984Z,24.98
2022-08-05T01:50:56.611Z,24.96
2022-08-05T01:53:57.273Z,24.89
2022-08-05T01:56:14.206Z,24.87
2022-08-05T01:59:03.602Z,24.92
2022-08-05T02:01:34.203Z,24.94
2022-08-05T02:04:10.289Z,24.93
2022-08-05T02:06:39.191Z,24.90
2022-08-05T02:09:07.549Z,24.90
2022-08-05T02:11:47.835Z,24.89
2022-08-05T02:14:21.594Z,24.81
2022-08-05T02:16:53.341Z,24.82
2022-08-05T02:19:33.506Z,24.79
2022-08-05T02:22:26.197Z,24.80
2022-08-05T02:25:04.130Z,24.72
2022-08-05T02:27:58.059Z,24.68
2022-08-05T02:30:26.982Z,24.57
2022-08-05T02:32:55.916Z,24.53
2022-08-05T02:35:28.336Z,24.48
2022-08-05T02:38:02.241Z,24.44
2022-08-05T02:40:30.785Z,24.37
2022-08-05T02:42:59.206Z,24.42
2022-08-05T02:45:28.557Z,24.40
2022-08-05T02:48:16.299Z,24.40
2022-08-05T02:50:47.344Z,24.28
2022-08-05T02:53:19.310Z,24.25
2022-08-05T02:55:54.540Z,24.20
2022-08-05T02:58:23.220Z,24.17
2022-08-05T03:00:56.016Z,24.22
2022-08-05T03:03:23.821Z,24.17
2022-08-05T03:06:55.388Z,24.12
2022-08-05T03:08:42.669Z,24.10
2022-08-05T03:11:54.545Z,24.12
2022-08-05T03:14:09.934Z,24.04
2022-08-05T03:16:41.047Z,23.91
2022-08-05T03:19:12.694Z,23.86
2022-08-05T03:21:48.766Z,23.81
2022-08-05T03:24:27.562Z,23.79
2022-08-05T03:26:59.141Z,23.82
2022-08-05T03:29:45.734Z,23.76
2022-08-05T03:32:15.446Z,23.74
2022-08-05T03:34:51.310Z,23.74
2022-08-05T03:37:21.103Z,23.69
2022-08-05T03:40:01.448Z,23.60
2022-08-05T03:42:32.208Z,23.53
2022-08-05T03:45:01.710Z,23.58
2022-08-05T03:47:47.861Z,23.58
2022-08-05T03:50:16.745Z,23.64
2022-08-05T03:55:34.301Z,23.68
2022-08-05T03:56:05.922Z,23.71
2022-08-05T03:58:31.833Z,23.67
2022-08-05T04:01:01.842Z,23.69
2022-08-05T04:03:35.898Z,23.64
2022-08-05T04:06:06.779Z,23.63
2022-08-05T04:08:37.231Z,23.65
2022-08-05T04:11:08.449Z,23.66
2022-08-05T04:13:49.756Z,23.68
2022-08-05T04:16:24.931Z,23.67
2022-08-05T04:18:54.748Z,23.75
2022-08-05T04:22:08.433Z,23.83
2022-08-05T04:24:19.703Z,23.81
2022-08-05T04:26:50.371Z,23.72
2022-08-05T04:29:18.131Z,23.82
2022-08-05T04:31:46.982Z,23.96
2022-08-05T04:34:33.000Z,24.08
2022-08-05T04:37:03.366Z,24.14
2022-08-05T04:39:31.348Z,24.20
2022-08-05T04:41:59.648Z,24.14
2022-08-05T04:44:29.837Z,24.27
2022-08-05T04:46:59.169Z,24.27
2022-08-05T04:49:39.260Z,24.31
2022-08-05T04:52:15.676Z,24.45
2022-08-05T04:54:43.397Z,24.50
2022-08-05T04:57:10.740Z,24.62
2022-08-05T04:59:40.600Z,24.68
2022-08-05T05:02:36.594Z,24.91
2022-08-05T05:05:01.926Z,24.82
2022-08-05T05:07:32.582Z,24.91
2022-08-05T05:10:06.352Z,25.07
2022-08-05T05:12:34.229Z,25.16
2022-08-05T05:15:05.614Z,25.38
2022-08-05T05:17:55.872Z,25.51
2022-08-05T05:20:28.637Z,25.65
2022-08-05T05:23:08.096Z,25.71
2022-08-05T05:25:41.038Z,25.85
2022-08-05T05:28:09.873Z,26.10
2022-08-05T05:30:38.276Z,26.27
2022-08-05T05:33:16.119Z,26.34
2022-08-05T05:35:46.770Z,26.47
2022-08-05T05:38:22.706Z,26.62
2022-08-05T05:40:57.995Z,26.59
2022-08-05T05:43:56.671Z,26.57
2022-08-05T05:46:17.664Z,26.63
2022-08-05T05:48:47.944Z,26.94
2022-08-05T05:51:20.711Z,27.17
2022-08-05T05:53:57.392Z,27.18
2022-08-05T05:56:32.289Z,27.26
2022-08-05T05:59:05.142Z,27.48
2022-08-05T06:01:39.719Z,27.45
2022-08-05T06:04:11.844Z,27.66
2022-08-05T06:06:47.290Z,27.63
2022-08-05T06:09:26.633Z,27.63
2022-08-05T06:12:04.459Z,27.91
2022-08-05T06:14:32.147Z,27.87
2022-08-05T06:17:01.945Z,28.11
2022-08-05T06:19:56.733Z,28.24
2022-08-05T06:22:29.536Z,28.40
2022-08-05T06:24:57.539Z,28.67
2022-08-05T06:28:11.173Z,28.69
2022-08-05T06:30:21.021Z,28.95
2022-08-05T06:32:50.640Z,29.09
2022-08-05T06:36:03.746Z,29.26
2022-08-05T06:38:11.402Z,29.43
2022-08-05T06:40:42.236Z,29.74
2022-08-05T06:43:59.228Z,30.00
2022-08-05T06:46:06.582Z,30.17
2022-08-05T06:48:55.465Z,30.40
2022-08-05T06:51:29.946Z,30.51
2022-08-05T06:53:59.770Z,30.79
2022-08-05T06:56:28.320Z,31.06
2022-08-05T06:58:56.085Z,31.18
2022-08-05T07:01:27.688Z,31.34
2022-08-05T07:04:02.367Z,31.39
2022-08-05T07:06:30.447Z,31.71
2022-08-05T07:09:04.035Z,31.93
2022-08-05T07:11:37.164Z,31.97
2022-08-05T07:14:29.660Z,32.24
2022-08-05T07:17:58.982Z,32.52
2022-08-05T07:20:32.361Z,32.58
2022-08-05T07:22:38.640Z,32.65
2022-08-05T07:25:21.956Z,33.07
2022-08-05T07:27:58.445Z,33.21
2022-08-05T07:30:38.945Z,33.16
2022-08-05T07:33:16.135Z,33.22
2022-08-05T07:36:03.729Z,33.45
2022-08-05T07:38:43.159Z,33.78
2022-08-05T07:42:14.288Z,33.69
2022-08-05T07:44:05.644Z,33.65
2022-08-05T07:46:48.180Z,33.67
2022-08-05T07:49:18.023Z,33.75
2022-08-05T07:51:53.465Z,33.99
2022-08-05T07:54:30.292Z,33.80
2022-08-05T07:57:22.753Z,33.89
2022-08-05T07:59:48.984Z,33.98
2022-08-05T08:02:18.240Z,33.96
2022-08-05T08:04:47.308Z,33.90
2022-08-05T08:07:15.387Z,33.83
2022-08-05T08:09:43.524Z,33.87
2022-08-05T08:12:35.210Z,33.90
2022-08-05T08:15:02.029Z,34.13
2022-08-05T08:17:30.977Z,33.84
2022-08-05T08:20:22.277Z,33.99
2022-08-05T08:22:56.772Z,34.04
2022-08-05T08:25:26.506Z,34.01
2022-08-05T08:28:18.849Z,34.22
2022-08-05T08:30:59.513Z,34.35
2022-08-05T08:33:28.740Z,34.44
2022-08-05T08:36:38.450Z,34.52
2022-08-05T08:38:55.372Z,34.69
2022-08-05T08:41:25.963Z,34.75
2022-08-05T08:45:16.964Z,34.74
2022-08-05T08:47:48.093Z,34.90
2022-08-05T08:50:06.196Z,34.95
2022-08-05T08:52:51.749Z,35.03
2022-08-05T08:56:03.175Z,35.07
2022-08-05T08:58:09.791Z,35.13
2022-08-05T09:00:42.593Z,35.32
2022-08-05T09:03:11.376Z,35.31
2022-08-05T09:06:09.150Z,35.50
2022-08-05T09:08:27.433Z,35.34
2022-08-05T09:10:58.222Z,35.43
2022-08-05T09:13:31.561Z,35.37
2022-08-05T09:15:59.691Z,35.53
2022-08-05T09:18:27.295Z,35.56
2022-08-05T09:20:54.817Z,35.68
2022-08-05T09:23:23.589Z,35.64
2022-08-05T09:26:11.620Z,35.61
2022-08-05T09:28:48.447Z,35.66
2022-08-05T09:31:43.914Z,35.80
2022-08-05T09:34:06.709Z,35.85
2022-08-05T09:36:55.000Z,35.78
2022-08-05T09:39:27.735Z,36.03
2022-08-05T09:42:11.311Z,36.19
2022-08-05T09:45:17.807Z,36.10
2022-08-05T09:47:56.574Z,36.22
2022-08-05T09:50:38.218Z,36.22
2022-08-05T09:53:22.691Z,36.31
2022-08-05T09:56:03.739Z,36.27
2022-08-05T09:58:32.596Z,36.29
2022-08-05T10:01:15.364Z,36.20
2022-08-05T10:04:00.403Z,36.39
2022-08-05T10:06:28.272Z,36.60
2022-08-05T10:08:57.164Z,36.55
2022-08-05T10:11:31.437Z,36.49
2022-08-05T10:14:32.203Z,36.44
2022-08-05T10:17:38.006Z,36.59
2022-08-05T10:20:04.120Z,36.60
2022-08-05T10:22:43.197Z,36.57
2022-08-05T10:25:19.095Z,36.75
2022-08-05T10:28:13.459Z,36.83
2022-08-05T10:32:03.020Z,36.81
2022-08-05T10:33:25.768Z,36.81
2022-08-05T10:35:59.709Z,36.90
2022-08-05T10:38:29.156Z,36.89
2022-08-05T10:41:46.697Z,36.98
2022-08-05T10:44:18.658Z,36.85
2022-08-05T10:46:55.120Z,36.98
2022-08-05T10:49:26.779Z,37.01
2022-08-05T10:52:00.642Z,37.07
2022-08-05T10:55:02.356Z,37.05
2022-08-05T10:57:31.966Z,36.96
2022-08-05T11:00:19.184Z,37.01
2022-08-05T11:03:24.341Z,37.10
2022-08-05T11:06:15.344Z,37.08
2022-08-05T11:09:32.307Z,37.03
2022-08-05T11:12:45.457Z,37.15
2022-08-05T11:15:21.439Z,37.18
2022-08-05T11:17:59.813Z,37.27
2022-08-05T11:20:43.978Z,37.21
2022-08-05T11:24:04.264Z,37.25
2022-08-05T11:26:36.812Z,37.17
2022-08-05T11:29:13.026Z,37.29
2022-08-05T11:31:56.648Z,37.28
2022-08-05T11:34:38.882Z,37.22
2022-08-05T11:38:30.793Z,37.24
2022-08-05T11:40:00.536Z,37.22
2022-08-05T11:42:40.212Z,37.23
2022-08-05T11:45:23.110Z,37.41
2022-08-05T11:47:57.538Z,37.41
2022-08-05T11:50:26.227Z,37.42
2022-08-05T11:52:57.600Z,37.35
2022-08-05T11:55:31.566Z,37.29
2022-08-05T11:58:11.012Z,37.25
2022-08-05T12:00:41.422Z,37.26
2022-08-05T12:03:28.710Z,37.27
2022-08-05T12:06:01.513Z,37.37
2022-08-05T12:08:31.574Z,37.40
2022-08-05T12:11:05.499Z,37.20
2022-08-05T12:13:48.719Z,37.10
2022-08-05T12:16:20.446Z,37.35
2022-08-05T12:18:55.325Z,37.12
2022-08-05T12:21:30.196Z,37.12
2022-08-05T12:24:04.856Z,37.14
2022-08-05T12:26:39.073Z,37.20
2022-08-05T12:29:09.588Z,37.22
2022-08-05T12:31:46.082Z,37.34
2022-08-05T12:34:20.622Z,37.35
2022-08-05T12:36:51.919Z,37.43
2022-08-05T12:39:19.560Z,37.36
2022-08-05T12:41:46.998Z,37.23
2022-08-05T12:44:21.872Z,37.34
2022-08-05T12:47:02.565Z,37.43
2022-08-05T12:50:04.529Z,37.38
2022-08-05T12:52:35.284Z,37.50
2022-08-05T12:55:22.589Z,37.73
2022-08-05T12:58:50.870Z,37.69
2022-08-05T13:02:03.286Z,37.69
2022-08-05T13:03:32.281Z,37.58
2022-08-05T13:06:07.172Z,37.19
2022-08-05T13:08:40.038Z,37.53
2022-08-05T13:11:07.957Z,37.55
2022-08-05T13:14:05.790Z,37.47
2022-08-05T13:16:27.847Z,37.68
2022-08-05T13:18:58.586Z,37.69
2022-08-05T13:21:28.168Z,37.73
2022-08-05T13:24:08.895Z,37.80
2022-08-05T13:26:36.743Z,37.79
2022-08-05T13:29:05.248Z,37.79
2022-08-05T13:32:02.942Z,37.80
2022-08-05T13:34:25.906Z,37.84
2022-08-05T13:36:53.901Z,37.97
2022-08-05T13:40:13.415Z,37.78
2022-08-05T13:42:14.247Z,37.74
2022-08-05T13:44:45.644Z,37.52
2022-08-05T13:47:35.154Z,37.65
2022-08-05T13:50:04.658Z,37.77
2022-08-05T13:52:35.445Z,37.57
2022-08-05T13:55:08.003Z,37.72
2022-08-05T13:57:48.547Z,37.63
2022-08-05T14:00:16.527Z,37.46
2022-08-05T14:02:45.180Z,37.44
2022-08-05T14:05:19.596Z,37.34
2022-08-05T14:08:11.363Z,37.43
2022-08-05T14:10:52.219Z,37.44
2022-08-05T14:13:20.036Z,37.56
2022-08-05T14:16:07.758Z,37.40
2022-08-05T14:18:44.497Z,37.44
2022-08-05T14:22:08.125Z,37.36
2022-08-05T14:24:00.729Z,37.25
2022-08-05T14:26:36.796Z,37.25
2022-08-05T14:29:16.300Z,37.35
2022-08-05T14:32:02.296Z,37.28
2022-08-05T14:34:36.389Z,37.24
2022-08-05T14:37:04.661Z,37.20
2022-08-05T14:39:49.705Z,37.19
2022-08-05T14:42:22.225Z,36.91
2022-08-05T14:44:49.834Z,37.14
2022-08-05T14:47:58.334Z,37.28
2022-08-05T14:50:17.767Z,37.26
2022-08-05T14:52:58.716Z,37.26
2022-08-05T14:55:38.589Z,37.31
2022-08-05T14:58:11.553Z,37.29
2022-08-05T15:00:59.293Z,37.19
2022-08-05T15:03:33.818Z,37.02
2022-08-05T15:06:14.883Z,37.03
2022-08-05T15:08:59.261Z,37.03
2022-08-05T15:11:51.862Z,37.12
2022-08-05T15:14:35.115Z,36.94
2022-08-05T15:17:44.208Z,36.91
2022-08-05T15:19:56.995Z,36.83
2022-08-05T15:22:27.266Z,36.78
2022-08-05T15:24:56.327Z,36.89
2022-08-05T15:27:25.533Z,36.95
2022-08-05T15:29:54.325Z,37.03
2022-08-05T15:32:27.409Z,36.82
2022-08-05T15:34:57.279Z,36.78
2022-08-05T15:38:03.717Z,36.93
2022-08-05T15:40:59.323Z,36.80
2022-08-05T15:43:10.877Z,36.79
2022-08-05T15:45:47.812Z,36.76
2022-08-05T15:48:29.810Z,36.89
2022-08-05T15:50:58.267Z,36.81
2022-08-05T15:53:38.322Z,36.86
2022-08-05T15:56:19.497Z,36.65
2022-08-05T15:58:48.212Z,36.61
2022-08-05T16:01:17.883Z,36.57
2022-08-05T16:03:48.540Z,36.57
2022-08-05T16:06:19.728Z,36.71
2022-08-05T16:08:50.982Z,36.60
2022-08-05T16:11:21.122Z,36.57
2022-08-05T16:14:06.548Z,36.56
2022-08-05T16:16:35.684Z,36.52
2022-08-05T16:19:03.584Z,36.58
2022-08-05T16:21:58.422Z,36.51
2022-08-05T16:24:39.897Z,36.44
2022-08-05T16:27:07.382Z,36.40
2022-08-05T16:29:37.312Z,36.43
2022-08-05T16:32:09.957Z,36.26
2022-08-05T16:34:39.344Z,36.15
2022-08-05T16:38:15.953Z,36.16
2022-08-05T16:40:04.242Z,36.21
2022-08-05T16:42:34.458Z,36.13
2022-08-05T16:46:05.377Z,36.08
2022-08-05T16:47:55.565Z,36.11
2022-08-05T16:50:26.127Z,36.08
2022-08-05T16:52:53.504Z,36.26
2022-08-05T16:55:24.557Z,36.13
2022-08-05T16:58:00.155Z,36.00
2022-08-05T17:00:34.814Z,35.85
2022-08-05T17:03:04.641Z,35.86
2022-08-05T17:05:37.592Z,35.89
2022-08-05T17:08:05.307Z,35.86
2022-08-05T17:10:36.317Z,35.85
2022-08-05T17:13:05.249Z,35.79
2022-08-05T17:15:48.444Z,35.79
2022-08-05T17:18:17.276Z,35.74
2022-08-05T17:20:46.413Z,35.72
2022-08-05T17:24:05.054Z,35.67
2022-08-05T17:26:02.281Z,35.62
2022-08-05T17:28:29.961Z,35.54
2022-08-05T17:30:57.279Z,35.62
2022-08-05T17:33:26.151Z,35.57
2022-08-05T17:36:07.374Z,35.49
2022-08-05T17:38:39.730Z,35.42
2022-08-05T17:41:23.030Z,35.31
2022-08-05T17:43:56.101Z,35.23
2022-08-05T17:46:25.244Z,35.13
2022-08-05T17:48:52.700Z,34.97
2022-08-05T17:51:21.940Z,34.87
2022-08-05T17:53:54.492Z,34.76
2022-08-05T17:56:22.843Z,34.57
2022-08-05T17:58:51.170Z,34.46
2022-08-05T18:01:19.807Z,34.38
2022-08-05T18:03:59.498Z,34.24
2022-08-05T18:06:31.758Z,34.10
2022-08-05T18:09:00.122Z,33.97
2022-08-05T18:11:33.095Z,33.87
2022-08-05T18:14:03.576Z,33.73
2022-08-05T18:16:32.954Z,33.57
2022-08-05T18:19:01.103Z,33.49
2022-08-05T18:22:08.265Z,33.32
2022-08-05T18:24:16.272Z,33.19
2022-08-05T18:26:43.802Z,33.17
2022-08-05T18:29:11.636Z,33.08
2022-08-05T18:31:43.063Z,32.93
2022-08-05T18:34:12.133Z,32.89
2022-08-05T18:36:41.375Z,32.69
2022-08-05T18:39:42.390Z,32.49
2022-08-05T18:42:03.655Z,32.45
2022-08-05T18:44:35.457Z,32.35
2022-08-05T18:47:17.129Z,32.17
2022-08-05T18:50:03.045Z,32.08
2022-08-05T18:52:35.971Z,31.97
2022-08-05T18:55:06.022Z,31.81
2022-08-05T18:57:43.298Z,31.70
2022-08-05T19:00:20.227Z,31.58
2022-08-05T19:02:48.575Z,31.57
2022-08-05T19:06:12.020Z,31.52
2022-08-05T19:08:15.322Z,31.41
2022-08-05T19:10:44.957Z,31.23
2022-08-05T19:13:19.749Z,31.06
2022-08-05T19:15:59.246Z,31.05
2022-08-05T19:18:29.025Z,30.96
2022-08-05T19:20:56.693Z,30.88
2022-08-05T19:24:05.570Z,30.82
2022-08-05T19:26:12.722Z,30.69
2022-08-05T19:28:42.278Z,30.67
2022-08-05T19:31:21.347Z,30.62
2022-08-05T19:33:56.088Z,30.55
2022-08-05T19:36:25.623Z,30.49
2022-08-05T19:39:00.538Z,30.36
2022-08-05T19:41:58.198Z,30.31
2022-08-05T19:44:18.872Z,30.24
2022-08-05T19:46:46.675Z,30.21
2022-08-05T19:49:16.901Z,30.14
2022-08-05T19:52:04.823Z,30.12
2022-08-05T19:54:34.627Z,30.08
2022-08-05T19:57:06.413Z,29.98
2022-08-05T19:59:56.657Z,29.95
2022-08-05T20:02:27.019Z,29.84
2022-08-05T20:04:59.210Z,29.81
2022-08-05T20:07:47.028Z,29.78
2022-08-05T20:10:17.145Z,29.80
2022-08-05T20:12:48.979Z,29.55
2022-08-05T20:15:48.589Z,29.58
2022-08-05T20:18:10.205Z,29.60
2022-08-05T20:20:55.124Z,29.49
2022-08-05T20:23:40.342Z,29.50
2022-08-05T20:26:15.953Z,29.42
2022-08-05T20:28:48.387Z,29.41
2022-08-05T20:31:21.823Z,29.37
2022-08-05T20:33:51.248Z,29.29
2022-08-05T20:36:19.475Z,29.27
2022-08-05T20:38:54.099Z,29.25
2022-08-05T20:41:43.763Z,29.18
2022-08-05T20:44:17.551Z,29.12
2022-08-05T20:46:48.088Z,29.06
2022-08-05T20:49:23.975Z,29.13
2022-08-05T20:51:53.655Z,29.09
2022-08-05T20:54:42.983Z,28.97
2022-08-05T20:57:42.113Z,28.93
2022-08-05T21:00:19.729Z,28.93
2022-08-05T21:02:56.994Z,28.90
2022-08-05T21:05:25.065Z,28.64
2022-08-05T21:07:52.576Z,28.64
2022-08-05T21:10:21.566Z,28.60
2022-08-05T21:12:57.986Z,28.47
2022-08-05T21:15:36.917Z,28.41
2022-08-05T21:18:04.587Z,28.38
2022-08-05T21:20:32.646Z,28.35
2022-08-05T21:23:01.344Z,28.28
2022-08-05T21:25:33.851Z,28.23
2022-08-05T21:28:03.088Z,28.23
2022-08-05T21:30:31.526Z,28.15
2022-08-05T21:32:59.725Z,28.03
2022-08-05T21:35:55.577Z,27.88
2022-08-05T21:38:17.837Z,27.88
2022-08-05T21:40:45.435Z,27.88
2022-08-05T21:43:17.720Z,27.85
2022-08-05T21:45:57.867Z,27.91
2022-08-05T21:48:28.781Z,27.83
2022-08-05T21:50:57.404Z,27.82
2022-08-05T21:53:27.628Z,27.80
2022-08-05T21:56:05.312Z,27.74
2022-08-05T21:58:42.045Z,27.69
2022-08-05T22:01:10.858Z,27.71
2022-08-05T22:03:48.567Z,27.61
2022-08-05T22:06:23.131Z,27.55
2022-08-05T22:09:14.025Z,27.53
2022-08-05T22:11:43.653Z,27.42
2022-08-05T22:14:33.644Z,27.46
2022-08-05T22:17:05.220Z,27.45
2022-08-05T22:20:02.226Z,27.35
2022-08-05T22:22:27.821Z,27.24
2022-08-05T22:25:21.137Z,27.25
2022-08-05T22:28:08.250Z,27.20
2022-08-05T22:30:55.554Z,27.06
2022-08-05T22:33:56.754Z,27.10
2022-08-05T22:36:16.578Z,27.13
2022-08-05T22:38:48.683Z,27.03
2022-08-05T22:42:04.743Z,27.04
2022-08-05T22:44:06.875Z,27.06
2022-08-05T22:46:39.403Z,26.96
2022-08-05T22:49:23.382Z,26.89
2022-08-05T22:52:05.086Z,26.94
2022-08-05T22:54:36.603Z,26.89
2022-08-05T22:57:05.637Z,26.78
2022-08-05T22:59:43.569Z,26.81
2022-08-05T23:02:17.669Z,26.78
2022-08-05T23:04:51.988Z,26.80
2022-08-05T23:07:21.811Z,26.76
2022-08-05T23:09:58.257Z,26.74
2022-08-05T23:12:32.566Z,26.72
2022-08-05T23:15:03.117Z,26.64
2022-08-05T23:17:34.984Z,26.65
2022-08-05T23:20:15.481Z,26.62
2022-08-05T23:22:47.267Z,26.67
2022-08-05T23:25:50.318Z,26.57
2022-08-05T23:28:06.906Z,26.52
2022-08-05T23:30:40.570Z,26.44
2022-08-05T23:33:22.581Z,26.45
2022-08-05T23:36:01.628Z,26.42
2022-08-05T23:38:29.268Z,26.43
2022-08-05T23:40:57.013Z,26.40
2022-08-05T23:44:05.318Z,26.41
2022-08-05T23:46:20.943Z,26.34
2022-08-05T23:49:00.512Z,26.32
2022-08-05T23:51:54.119Z,26.27
2022-08-05T23:54:26.030Z,26.28
2022-08-05T23:56:55.877Z,26.26
